sensor_id;sensor_type;location;lat;lon;timestamp;temperature;humidity
26212;DHT22;13951;49.516;6.094;2022-08-07T00:02:16;17.70;94.60
26212;DHT22;13951;49.516;6.094;2022-08-07T00:05:09;17.60;95.40
26212;DHT22;13951;49.516;6.094;2022-08-07T00:07:43;17.60;95.60
26212;DHT22;13951;49.516;6.094;2022-08-07T00:10:16;17.50;95.70
26212;DHT22;13951;49.516;6.094;2022-08-07T00:13:03;17.40;95.60
26212;DHT22;13951;49.516;6.094;2022-08-07T00:15:57;17.40;95.90
26212;DHT22;13951;49.516;6.094;2022-08-07T00:18:30;17.30;96.60
26212;DHT22;13951;49.516;6.094;2022-08-07T00:21:05;17.30;96.00
26212;DHT22;13951;49.516;6.094;2022-08-07T00:23:58;17.30;96.40
26212;DHT22;13951;49.516;6.094;2022-08-07T00:26:32;17.20;96.00
26212;DHT22;13951;49.516;6.094;2022-08-07T00:30:16;17.20;96.10
26212;DHT22;13951;49.516;6.094;2022-08-07T00:33:01;17.10;96.80
26212;DHT22;13951;49.516;6.094;2022-08-07T00:35:44;17.10;97.20
26212;DHT22;13951;49.516;6.094;2022-08-07T00:38:28;17.10;96.60
26212;DHT22;13951;49.516;6.094;2022-08-07T00:41:15;17.10;96.60
26212;DHT22;13951;49.516;6.094;2022-08-07T00:44:02;17.10;97.40
26212;DHT22;13951;49.516;6.094;2022-08-07T00:46:37;17.00;96.70
26212;DHT22;13951;49.516;6.094;2022-08-07T00:49:35;17.00;96.80
26212;DHT22;13951;49.516;6.094;2022-08-07T00:52:28;16.90;97.00
26212;DHT22;13951;49.516;6.094;2022-08-07T00:55:05;16.80;97.50
26212;DHT22;13951;49.516;6.094;2022-08-07T00:57:48;16.70;97.80
26212;DHT22;13951;49.516;6.094;2022-08-07T01:00:35;16.70;98.10
26212;DHT22;13951;49.516;6.094;2022-08-07T01:03:11;16.70;98.20
26212;DHT22;13951;49.516;6.094;2022-08-07T01:06:18;16.60;98.00
26212;DHT22;13951;49.516;6.094;2022-08-07T01:08:57;16.60;98.30
26212;DHT22;13951;49.516;6.094;2022-08-07T01:11:33;16.40;98.50
26212;DHT22;13951;49.516;6.094;2022-08-07T01:14:28;16.40;99.30
26212;DHT22;13951;49.516;6.094;2022-08-07T01:17:14;16.40;99.00
26212;DHT22;13951;49.516;6.094;2022-08-07T01:19:49;16.30;99.00
26212;DHT22;13951;49.516;6.094;2022-08-07T01:22:39;16.30;99.30
26212;DHT22;13951;49.516;6.094;2022-08-07T01:25:34;16.30;98.90
26212;DHT22;13951;49.516;6.094;2022-08-07T01:28:31;16.20;99.40
26212;DHT22;13951;49.516;6.094;2022-08-07T01:31:05;16.10;99.80
26212;DHT22;13951;49.516;6.094;2022-08-07T01:33:40;16.00;99.80
26212;DHT22;13951;49.516;6.094;2022-08-07T01:36:29;16.00;99.90
26212;DHT22;13951;49.516;6.094;2022-08-07T01:39:10;15.90;99.90
26212;DHT22;13951;49.516;6.094;2022-08-07T01:41:49;15.80;99.90
26212;DHT22;13951;49.516;6.094;2022-08-07T01:44:43;15.70;99.90
26212;DHT22;13951;49.516;6.094;2022-08-07T01:47:21;15.70;99.90
26212;DHT22;13951;49.516;6.094;2022-08-07T01:50:15;15.70;99.90
26212;DHT22;13951;49.516;6.094;2022-08-07T01:53:01;15.70;99.90
26212;DHT22;13951;49.516;6.094;2022-08-07T01:55:50;15.60;99.90
26212;DHT22;13951;49.516;6.094;2022-08-07T01:58:30;15.60;99.90
26212;DHT22;13951;49.516;6.094;2022-08-07T02:01:11;15.50;99.90
26212;DHT22;13951;49.516;6.094;2022-08-07T02:04:12;15.40;99.90
26212;DHT22;13951;49.516;6.094;2022-08-07T02:06:54;15.30;99.90
26212;DHT22;13951;49.516;6.094;2022-08-07T02:09:31;15.20;99.90
26212;DHT22;13951;49.516;6.094;2022-08-07T02:12:27;15.20;99.90
26212;DHT22;13951;49.516;6.094;2022-08-07T02:15:04;15.10;99.90
26212;DHT22;13951;49.516;6.094;2022-08-07T02:17:43;15.00;99.90
26212;DHT22;13951;49.516;6.094;2022-08-07T02:20:24;14.90;99.90
26212;DHT22;13951;49.516;6.094;2022-08-07T02:23:01;14.80;99.90
26212;DHT22;13951;49.516;6.094;2022-08-07T02:25:36;14.80;99.90
26212;DHT22;13951;49.516;6.094;2022-08-07T02:28:32;14.70;99.90
26212;DHT22;13951;49.516;6.094;2022-08-07T02:31:08;14.70;99.90
26212;DHT22;13951;49.516;6.094;2022-08-07T02:34:04;14.70;99.90
26212;DHT22;13951;49.516;6.094;2022-08-07T02:36:57;14.70;99.90
26212;DHT22;13951;49.516;6.094;2022-08-07T02:39:33;14.60;99.90
26212;DHT22;13951;49.516;6.094;2022-08-07T02:42:19;14.60;99.90
26212;DHT22;13951;49.516;6.094;2022-08-07T02:44:55;14.60;99.90
26212;DHT22;13951;49.516;6.094;2022-08-07T02:47:30;14.60;99.90
26212;DHT22;13951;49.516;6.094;2022-08-07T02:50:21;14.60;99.90
26212;DHT22;13951;49.516;6.094;2022-08-07T02:52:55;14.60;99.90
26212;DHT22;13951;49.516;6.094;2022-08-07T02:55:43;14.60;99.90
26212;DHT22;13951;49.516;6.094;2022-08-07T02:58:39;14.70;99.90
26212;DHT22;13951;49.516;6.094;2022-08-07T03:01:20;14.70;99.90
26212;DHT22;13951;49.516;6.094;2022-08-07T03:04:12;14.70;99.90
26212;DHT22;13951;49.516;6.094;2022-08-07T03:06:48;14.70;99.90
26212;DHT22;13951;49.516;6.094;2022-08-07T03:09:22;14.70;99.90
26212;DHT22;13951;49.516;6.094;2022-08-07T03:12:16;14.60;99.90
26212;DHT22;13951;49.516;6.094;2022-08-07T03:15:09;14.60;99.90
26212;DHT22;13951;49.516;6.094;2022-08-07T03:17:44;14.50;99.90
26212;DHT22;13951;49.516;6.094;2022-08-07T03:20:28;14.50;99.90
26212;DHT22;13951;49.516;6.094;2022-08-07T03:23:02;14.40;99.90
26212;DHT22;13951;49.516;6.094;2022-08-07T03:25:50;14.40;99.90
26212;DHT22;13951;49.516;6.094;2022-08-07T03:28:30;14.40;99.90
26212;DHT22;13951;49.516;6.094;2022-08-07T03:31:10;14.40;99.90
26212;DHT22;13951;49.516;6.094;2022-08-07T03:34:17;14.30;99.90
26212;DHT22;13951;49.516;6.094;2022-08-07T03:37:01;14.30;99.90
26212;DHT22;13951;49.516;6.094;2022-08-07T03:39:56;14.20;99.90
26212;DHT22;13951;49.516;6.094;2022-08-07T03:42:49;14.10;99.90
26212;DHT22;13951;49.516;6.094;2022-08-07T03:45:24;14.10;99.90
26212;DHT22;13951;49.516;6.094;2022-08-07T03:48:13;14.00;99.90
26212;DHT22;13951;49.516;6.094;2022-08-07T03:50:47;14.00;99.90
26212;DHT22;13951;49.516;6.094;2022-08-07T03:53:32;13.90;99.90
26212;DHT22;13951;49.516;6.094;2022-08-07T03:56:26;13.90;99.90
26212;DHT22;13951;49.516;6.094;2022-08-07T04:01:52;13.70;99.90
26212;DHT22;13951;49.516;6.094;2022-08-07T04:04:28;13.60;99.90
26212;DHT22;13951;49.516;6.094;2022-08-07T04:07:07;13.60;99.90
26212;DHT22;13951;49.516;6.094;2022-08-07T04:09:51;13.50;99.90
26212;DHT22;13951;49.516;6.094;2022-08-07T04:12:29;13.50;99.90
26212;DHT22;13951;49.516;6.094;2022-08-07T04:15:07;13.50;99.90
26212;DHT22;13951;49.516;6.094;2022-08-07T04:17:44;13.50;99.90
26212;DHT22;13951;49.516;6.094;2022-08-07T04:20:37;13.40;99.90
26212;DHT22;13951;49.516;6.094;2022-08-07T04:23:26;13.40;99.90
26212;DHT22;13951;49.516;6.094;2022-08-07T04:26:20;13.30;99.90
26212;DHT22;13951;49.516;6.094;2022-08-07T04:28:55;13.30;99.90
26212;DHT22;13951;49.516;6.094;2022-08-07T04:31:31;13.30;99.90
26212;DHT22;13951;49.516;6.094;2022-08-07T04:34:24;13.30;99.90
26212;DHT22;13951;49.516;6.094;2022-08-07T04:37:06;13.20;99.90
26212;DHT22;13951;49.516;6.094;2022-08-07T04:39:47;13.20;99.90
26212;DHT22;13951;49.516;6.094;2022-08-07T04:42:22;13.20;99.90
26212;DHT22;13951;49.516;6.094;2022-08-07T04:45:02;13.20;99.90
26212;DHT22;13951;49.516;6.094;2022-08-07T04:47:57;13.30;99.90
26212;DHT22;13951;49.516;6.094;2022-08-07T04:53:33;13.50;99.90
26212;DHT22;13951;49.516;6.094;2022-08-07T05:02:57;13.60;99.90
26212;DHT22;13951;49.516;6.094;2022-08-07T05:05:42;13.70;99.90
26212;DHT22;13951;49.516;6.094;2022-08-07T05:08:34;13.70;99.90
26212;DHT22;13951;49.516;6.094;2022-08-07T05:11:34;13.70;99.90
26212;DHT22;13951;49.516;6.094;2022-08-07T05:14:46;13.70;99.90
26212;DHT22;13951;49.516;6.094;2022-08-07T05:17:30;13.90;99.90
26212;DHT22;13951;49.516;6.094;2022-08-07T05:20:31;13.90;99.90
26212;DHT22;13951;49.516;6.094;2022-08-07T05:23:12;13.90;99.90
26212;DHT22;13951;49.516;6.094;2022-08-07T05:25:51;13.90;99.90
26212;DHT22;13951;49.516;6.094;2022-08-07T05:28:49;14.10;99.90
26212;DHT22;13951;49.516;6.094;2022-08-07T05:31:29;14.20;99.90
26212;DHT22;13951;49.516;6.094;2022-08-07T05:34:11;14.30;99.90
26212;DHT22;13951;49.516;6.094;2022-08-07T05:36:51;14.40;99.90
26212;DHT22;13951;49.516;6.094;2022-08-07T05:39:31;14.40;99.90
26212;DHT22;13951;49.516;6.094;2022-08-07T05:42:26;14.60;99.90
26212;DHT22;13951;49.516;6.094;2022-08-07T05:45:09;14.80;99.90
26212;DHT22;13951;49.516;6.094;2022-08-07T05:48:07;15.00;99.90
26212;DHT22;13951;49.516;6.094;2022-08-07T05:50:46;15.10;99.90
26212;DHT22;13951;49.516;6.094;2022-08-07T05:53:24;15.30;99.90
26212;DHT22;13951;49.516;6.094;2022-08-07T05:56:19;15.50;99.90
26212;DHT22;13951;49.516;6.094;2022-08-07T05:59:05;15.70;99.90
26212;DHT22;13951;49.516;6.094;2022-08-07T06:01:43;15.90;99.90
26212;DHT22;13951;49.516;6.094;2022-08-07T06:04:19;16.20;99.90
26212;DHT22;13951;49.516;6.094;2022-08-07T06:07:02;16.40;99.90
26212;DHT22;13951;49.516;6.094;2022-08-07T06:09:40;16.60;99.90
26212;DHT22;13951;49.516;6.094;2022-08-07T06:12:34;16.80;99.90
26212;DHT22;13951;49.516;6.094;2022-08-07T06:15:08;17.10;99.90
26212;DHT22;13951;49.516;6.094;2022-08-07T06:17:48;17.30;99.90
26212;DHT22;13951;49.516;6.094;2022-08-07T06:20:29;17.50;99.50
26212;DHT22;13951;49.516;6.094;2022-08-07T06:23:23;17.60;99.00
26212;DHT22;13951;49.516;6.094;2022-08-07T06:26:16;17.70;97.40
26212;DHT22;13951;49.516;6.094;2022-08-07T06:28:53;17.90;96.90
26212;DHT22;13951;49.516;6.094;2022-08-07T06:31:29;17.90;96.50
26212;DHT22;13951;49.516;6.094;2022-08-07T06:34:23;18.10;95.60
26212;DHT22;13951;49.516;6.094;2022-08-07T06:37:02;18.10;95.20
26212;DHT22;13951;49.516;6.094;2022-08-07T06:39:47;18.20;94.90
26212;DHT22;13951;49.516;6.094;2022-08-07T06:43:03;18.30;94.50
26212;DHT22;13951;49.516;6.094;2022-08-07T06:46:22;18.50;94.40
26212;DHT22;13951;49.516;6.094;2022-08-07T06:49:10;18.60;93.90
26212;DHT22;13951;49.516;6.094;2022-08-07T06:51:53;18.70;93.30
26212;DHT22;13951;49.516;6.094;2022-08-07T06:54:40;18.90;94.10
26212;DHT22;13951;49.516;6.094;2022-08-07T06:57:34;19.10;92.70
26212;DHT22;13951;49.516;6.094;2022-08-07T07:00:23;19.20;92.50
26212;DHT22;13951;49.516;6.094;2022-08-07T07:02:57;19.40;92.40
26212;DHT22;13951;49.516;6.094;2022-08-07T07:05:40;19.50;91.50
26212;DHT22;13951;49.516;6.094;2022-08-07T07:08:34;19.50;91.80
26212;DHT22;13951;49.516;6.094;2022-08-07T07:11:12;19.60;90.90
26212;DHT22;13951;49.516;6.094;2022-08-07T07:14:06;19.50;90.80
26212;DHT22;13951;49.516;6.094;2022-08-07T07:16:42;19.50;90.60
26212;DHT22;13951;49.516;6.094;2022-08-07T07:19:29;19.50;90.50
26212;DHT22;13951;49.516;6.094;2022-08-07T07:22:23;19.70;90.60
26212;DHT22;13951;49.516;6.094;2022-08-07T07:25:18;19.90;91.20
26212;DHT22;13951;49.516;6.094;2022-08-07T07:28:12;20.00;89.50
26212;DHT22;13951;49.516;6.094;2022-08-07T07:31:22;20.10;88.70
26212;DHT22;13951;49.516;6.094;2022-08-07T07:34:04;20.10;89.20
26212;DHT22;13951;49.516;6.094;2022-08-07T07:36:39;20.20;88.30
26212;DHT22;13951;49.516;6.094;2022-08-07T07:39:21;20.20;89.00
26212;DHT22;13951;49.516;6.094;2022-08-07T07:41:59;20.20;87.30
26212;DHT22;13951;49.516;6.094;2022-08-07T07:44:46;20.30;87.70
26212;DHT22;13951;49.516;6.094;2022-08-07T07:47:22;20.40;87.50
26212;DHT22;13951;49.516;6.094;2022-08-07T07:49:56;20.60;87.80
26212;DHT22;13951;49.516;6.094;2022-08-07T07:52:51;20.80;86.20
26212;DHT22;13951;49.516;6.094;2022-08-07T07:55:26;20.90;85.90
26212;DHT22;13951;49.516;6.094;2022-08-07T07:58:10;21.00;85.20
26212;DHT22;13951;49.516;6.094;2022-08-07T08:00:44;21.00;84.40
26212;DHT22;13951;49.516;6.094;2022-08-07T08:03:27;21.00;84.50
26212;DHT22;13951;49.516;6.094;2022-08-07T08:06:23;21.00;84.40
26212;DHT22;13951;49.516;6.094;2022-08-07T08:08:59;21.10;83.50
26212;DHT22;13951;49.516;6.094;2022-08-07T08:11:33;21.20;83.80
26212;DHT22;13951;49.516;6.094;2022-08-07T08:14:26;21.30;83.60
26212;DHT22;13951;49.516;6.094;2022-08-07T08:17:00;21.50;82.10
26212;DHT22;13951;49.516;6.094;2022-08-07T08:19:58;21.60;82.30
26212;DHT22;13951;49.516;6.094;2022-08-07T08:22:53;21.70;83.60
26212;DHT22;13951;49.516;6.094;2022-08-07T08:25:48;21.90;81.00
26212;DHT22;13951;49.516;6.094;2022-08-07T08:28:50;22.10;79.50
26212;DHT22;13951;49.516;6.094;2022-08-07T08:31:28;22.10;79.10
26212;DHT22;13951;49.516;6.094;2022-08-07T08:34:37;22.10;79.00
26212;DHT22;13951;49.516;6.094;2022-08-07T08:37:11;22.30;80.70
26212;DHT22;13951;49.516;6.094;2022-08-07T08:40:09;22.50;78.90
26212;DHT22;13951;49.516;6.094;2022-08-07T08:45:47;22.80;78.90
26212;DHT22;13951;49.516;6.094;2022-08-07T08:48:54;23.00;77.50
26212;DHT22;13951;49.516;6.094;2022-08-07T08:51:31;23.00;76.00
26212;DHT22;13951;49.516;6.094;2022-08-07T08:54:31;23.30;77.60
26212;DHT22;13951;49.516;6.094;2022-08-07T08:57:13;23.40;74.40
26212;DHT22;13951;49.516;6.094;2022-08-07T08:59:58;23.40;74.40
26212;DHT22;13951;49.516;6.094;2022-08-07T09:05:32;23.20;73.90
26212;DHT22;13951;49.516;6.094;2022-08-07T09:08:13;23.30;73.80
26212;DHT22;13951;49.516;6.094;2022-08-07T09:11:26;23.30;74.60
26212;DHT22;13951;49.516;6.094;2022-08-07T09:14:35;23.50;73.90
26212;DHT22;13951;49.516;6.094;2022-08-07T09:27:51;23.70;72.20
26212;DHT22;13951;49.516;6.094;2022-08-07T09:30:59;23.80;72.10
26212;DHT22;13951;49.516;6.094;2022-08-07T09:37:10;24.20;71.00
26212;DHT22;13951;49.516;6.094;2022-08-07T09:39:38;24.20;70.00
26212;DHT22;13951;49.516;6.094;2022-08-07T09:45:38;24.40;69.60
26212;DHT22;13951;49.516;6.094;2022-08-07T09:48:45;24.50;69.30
26212;DHT22;13951;49.516;6.094;2022-08-07T09:51:54;24.60;69.90
26212;DHT22;13951;49.516;6.094;2022-08-07T09:55:03;24.50;69.10
26212;DHT22;13951;49.516;6.094;2022-08-07T09:58:44;24.50;68.50
26212;DHT22;13951;49.516;6.094;2022-08-07T10:08:08;24.50;68.80
26212;DHT22;13951;49.516;6.094;2022-08-07T10:10:43;24.60;68.60
26212;DHT22;13951;49.516;6.094;2022-08-07T10:16:57;24.90;69.40
26212;DHT22;13951;49.516;6.094;2022-08-07T10:20:08;25.20;68.80
26212;DHT22;13951;49.516;6.094;2022-08-07T10:41:45;26.10;62.80
26212;DHT22;13951;49.516;6.094;2022-08-07T10:45:00;26.00;60.20
26212;DHT22;13951;49.516;6.094;2022-08-07T10:47:44;26.20;60.80
26212;DHT22;13951;49.516;6.094;2022-08-07T10:50:53;26.30;58.00
26212;DHT22;13951;49.516;6.094;2022-08-07T10:53:56;26.30;56.90
26212;DHT22;13951;49.516;6.094;2022-08-07T11:08:42;26.80;59.00
26212;DHT22;13951;49.516;6.094;2022-08-07T11:11:43;27.10;57.60
26212;DHT22;13951;49.516;6.094;2022-08-07T11:14:36;27.20;56.20
26212;DHT22;13951;49.516;6.094;2022-08-07T11:20:36;27.40;56.40
26212;DHT22;13951;49.516;6.094;2022-08-07T11:23:35;27.30;54.80
26212;DHT22;13951;49.516;6.094;2022-08-07T11:26:26;27.10;54.00
26212;DHT22;13951;49.516;6.094;2022-08-07T11:29:13;27.20;53.30
26212;DHT22;13951;49.516;6.094;2022-08-07T11:32:17;27.40;54.50
26212;DHT22;13951;49.516;6.094;2022-08-07T11:35:01;27.60;55.70
26212;DHT22;13951;49.516;6.094;2022-08-07T11:50:52;27.50;53.30
26212;DHT22;13951;49.516;6.094;2022-08-07T11:53:49;27.60;52.90
26212;DHT22;13951;49.516;6.094;2022-08-07T11:56:44;27.80;53.50
26212;DHT22;13951;49.516;6.094;2022-08-07T12:08:37;28.00;52.00
26212;DHT22;13951;49.516;6.094;2022-08-07T12:11:18;28.00;53.40
26212;DHT22;13951;49.516;6.094;2022-08-07T12:14:00;28.20;53.90
26212;DHT22;13951;49.516;6.094;2022-08-07T12:16:41;28.50;54.40
26212;DHT22;13951;49.516;6.094;2022-08-07T12:19:42;28.80;52.50
26212;DHT22;13951;49.516;6.094;2022-08-07T12:26:34;28.80;52.30
26212;DHT22;13951;49.516;6.094;2022-08-07T12:35:23;28.20;51.60
26212;DHT22;13951;49.516;6.094;2022-08-07T12:38:01;28.00;51.10
26212;DHT22;13951;49.516;6.094;2022-08-07T12:40:45;27.80;50.40
26212;DHT22;13951;49.516;6.094;2022-08-07T12:43:27;27.50;50.60
26212;DHT22;13951;49.516;6.094;2022-08-07T12:46:48;27.30;51.20
26212;DHT22;13951;49.516;6.094;2022-08-07T12:53:07;26.90;52.80
26212;DHT22;13951;49.516;6.094;2022-08-07T12:55:57;26.50;54.10
26212;DHT22;13951;49.516;6.094;2022-08-07T12:58:38;26.50;53.30
26212;DHT22;13951;49.516;6.094;2022-08-07T13:05:06;26.40;52.30
26212;DHT22;13951;49.516;6.094;2022-08-07T13:14:07;26.40;51.70
26212;DHT22;13951;49.516;6.094;2022-08-07T13:17:04;26.40;51.80
26212;DHT22;13951;49.516;6.094;2022-08-07T13:22:36;26.40;52.20
26212;DHT22;13951;49.516;6.094;2022-08-07T13:25:31;26.40;51.50
26212;DHT22;13951;49.516;6.094;2022-08-07T13:28:18;26.30;51.60
26212;DHT22;13951;49.516;6.094;2022-08-07T13:31:05;26.20;51.10
26212;DHT22;13951;49.516;6.094;2022-08-07T13:40:21;25.90;51.00
26212;DHT22;13951;49.516;6.094;2022-08-07T13:43:14;25.80;52.10
26212;DHT22;13951;49.516;6.094;2022-08-07T13:45:56;25.80;51.90
26212;DHT22;13951;49.516;6.094;2022-08-07T13:48:52;25.70;52.70
26212;DHT22;13951;49.516;6.094;2022-08-07T13:51:32;25.80;52.10
26212;DHT22;13951;49.516;6.094;2022-08-07T13:54:30;25.70;52.20
26212;DHT22;13951;49.516;6.094;2022-08-07T13:57:08;25.80;53.80
26212;DHT22;13951;49.516;6.094;2022-08-07T13:59:55;25.80;52.00
26212;DHT22;13951;49.516;6.094;2022-08-07T14:02:33;25.80;52.30
26212;DHT22;13951;49.516;6.094;2022-08-07T14:05:25;25.80;52.70
26212;DHT22;13951;49.516;6.094;2022-08-07T14:08:10;25.80;52.50
26212;DHT22;13951;49.516;6.094;2022-08-07T14:10:44;25.80;52.40
26212;DHT22;13951;49.516;6.094;2022-08-07T14:13:34;25.80;52.70
26212;DHT22;13951;49.516;6.094;2022-08-07T14:16:16;25.80;52.90
26212;DHT22;13951;49.516;6.094;2022-08-07T14:19:00;25.70;51.60
26212;DHT22;13951;49.516;6.094;2022-08-07T14:21:46;25.80;51.50
26212;DHT22;13951;49.516;6.094;2022-08-07T14:24:45;25.80;51.10
26212;DHT22;13951;49.516;6.094;2022-08-07T14:27:27;25.70;51.80
26212;DHT22;13951;49.516;6.094;2022-08-07T14:30:23;25.70;50.60
26212;DHT22;13951;49.516;6.094;2022-08-07T14:33:05;25.70;51.00
26212;DHT22;13951;49.516;6.094;2022-08-07T14:35:39;25.80;52.40
26212;DHT22;13951;49.516;6.094;2022-08-07T14:38:22;25.80;51.60
26212;DHT22;13951;49.516;6.094;2022-08-07T14:41:09;25.70;52.80
26212;DHT22;13951;49.516;6.094;2022-08-07T14:43:47;25.70;51.70
26212;DHT22;13951;49.516;6.094;2022-08-07T14:46:41;25.60;52.50
26212;DHT22;13951;49.516;6.094;2022-08-07T14:49:36;25.70;51.40
26212;DHT22;13951;49.516;6.094;2022-08-07T14:52:30;25.70;50.80
26212;DHT22;13951;49.516;6.094;2022-08-07T14:55:06;25.60;52.20
26212;DHT22;13951;49.516;6.094;2022-08-07T14:57:42;25.70;51.70
26212;DHT22;13951;49.516;6.094;2022-08-07T15:00:32;25.70;52.60
26212;DHT22;13951;49.516;6.094;2022-08-07T15:03:08;25.70;52.10
26212;DHT22;13951;49.516;6.094;2022-08-07T15:05:52;25.70;50.40
26212;DHT22;13951;49.516;6.094;2022-08-07T15:08:38;25.70;51.50
26212;DHT22;13951;49.516;6.094;2022-08-07T15:11:43;25.60;51.40
26212;DHT22;13951;49.516;6.094;2022-08-07T15:14:48;25.60;52.00
26212;DHT22;13951;49.516;6.094;2022-08-07T15:17:32;25.60;51.50
26212;DHT22;13951;49.516;6.094;2022-08-07T15:20:31;25.60;50.90
26212;DHT22;13951;49.516;6.094;2022-08-07T15:23:27;25.60;50.50
26212;DHT22;13951;49.516;6.094;2022-08-07T15:26:37;25.60;50.80
26212;DHT22;13951;49.516;6.094;2022-08-07T15:29:16;25.60;52.20
26212;DHT22;13951;49.516;6.094;2022-08-07T15:32:11;25.60;50.40
26212;DHT22;13951;49.516;6.094;2022-08-07T15:34:45;25.60;50.50
26212;DHT22;13951;49.516;6.094;2022-08-07T15:37:40;25.60;51.40
26212;DHT22;13951;49.516;6.094;2022-08-07T15:40:34;25.50;51.90
26212;DHT22;13951;49.516;6.094;2022-08-07T15:46:20;25.50;52.10
26212;DHT22;13951;49.516;6.094;2022-08-07T15:49:15;25.50;52.50
26212;DHT22;13951;49.516;6.094;2022-08-07T15:51:49;25.40;51.30
26212;DHT22;13951;49.516;6.094;2022-08-07T15:54:34;25.40;50.30
26212;DHT22;13951;49.516;6.094;2022-08-07T15:57:14;25.50;50.50
26212;DHT22;13951;49.516;6.094;2022-08-07T16:00:11;25.50;50.70
26212;DHT22;13951;49.516;6.094;2022-08-07T16:03:10;25.50;51.00
26212;DHT22;13951;49.516;6.094;2022-08-07T16:05:53;25.50;51.10
26212;DHT22;13951;49.516;6.094;2022-08-07T16:08:28;25.50;51.00
26212;DHT22;13951;49.516;6.094;2022-08-07T16:14:08;25.60;50.40
26212;DHT22;13951;49.516;6.094;2022-08-07T16:19:31;25.50;51.10
26212;DHT22;13951;49.516;6.094;2022-08-07T16:25:29;25.60;51.00
26212;DHT22;13951;49.516;6.094;2022-08-07T16:32:11;25.50;50.50
26212;DHT22;13951;49.516;6.094;2022-08-07T17:05:39;25.30;52.00
26212;DHT22;13951;49.516;6.094;2022-08-07T17:08:45;25.20;52.20
26212;DHT22;13951;49.516;6.094;2022-08-07T17:11:54;25.20;52.10
26212;DHT22;13951;49.516;6.094;2022-08-07T17:15:15;25.20;52.50
26212;DHT22;13951;49.516;6.094;2022-08-07T17:18:06;25.20;52.70
26212;DHT22;13951;49.516;6.094;2022-08-07T17:20:46;25.20;52.50
26212;DHT22;13951;49.516;6.094;2022-08-07T17:29:40;25.10;51.20
26212;DHT22;13951;49.516;6.094;2022-08-07T17:38:53;25.10;51.30
26212;DHT22;13951;49.516;6.094;2022-08-07T17:42:03;25.00;51.70
26212;DHT22;13951;49.516;6.094;2022-08-07T17:44:45;25.00;50.80
26212;DHT22;13951;49.516;6.094;2022-08-07T17:47:57;25.00;51.90
26212;DHT22;13951;49.516;6.094;2022-08-07T17:51:14;24.90;51.30
26212;DHT22;13951;49.516;6.094;2022-08-07T17:57:05;24.90;51.40
26212;DHT22;13951;49.516;6.094;2022-08-07T17:59:55;24.80;51.90
26212;DHT22;13951;49.516;6.094;2022-08-07T18:02:53;24.80;52.60
26212;DHT22;13951;49.516;6.094;2022-08-07T18:06:05;24.80;52.10
26212;DHT22;13951;49.516;6.094;2022-08-07T18:08:48;24.70;51.60
26212;DHT22;13951;49.516;6.094;2022-08-07T18:12:04;24.70;51.90
26212;DHT22;13951;49.516;6.094;2022-08-07T18:15:05;24.70;52.00
26212;DHT22;13951;49.516;6.094;2022-08-07T18:17:51;24.60;51.90
26212;DHT22;13951;49.516;6.094;2022-08-07T18:21:08;24.60;53.20
26212;DHT22;13951;49.516;6.094;2022-08-07T18:29:22;24.40;52.80
26212;DHT22;13951;49.516;6.094;2022-08-07T18:47:57;24.10;54.60
26212;DHT22;13951;49.516;6.094;2022-08-07T19:00:07;23.90;55.80
26212;DHT22;13951;49.516;6.094;2022-08-07T19:03:09;23.80;55.10
26212;DHT22;13951;49.516;6.094;2022-08-07T19:06:01;23.80;55.40
26212;DHT22;13951;49.516;6.094;2022-08-07T19:18:36;23.50;56.70
26212;DHT22;13951;49.516;6.094;2022-08-07T19:24:38;23.30;56.90
26212;DHT22;13951;49.516;6.094;2022-08-07T19:27:19;23.20;57.30
26212;DHT22;13951;49.516;6.094;2022-08-07T19:30:13;23.20;57.30
26212;DHT22;13951;49.516;6.094;2022-08-07T19:33:08;23.10;58.80
26212;DHT22;13951;49.516;6.094;2022-08-07T19:35:53;23.00;57.50
26212;DHT22;13951;49.516;6.094;2022-08-07T19:38:31;23.00;58.70
26212;DHT22;13951;49.516;6.094;2022-08-07T19:41:06;23.00;58.10
26212;DHT22;13951;49.516;6.094;2022-08-07T19:43:42;22.90;57.80
26212;DHT22;13951;49.516;6.094;2022-08-07T19:46:33;22.90;58.20
26212;DHT22;13951;49.516;6.094;2022-08-07T19:49:28;22.80;57.70
26212;DHT22;13951;49.516;6.094;2022-08-07T19:52:27;22.80;57.90
26212;DHT22;13951;49.516;6.094;2022-08-07T19:55:00;22.80;58.00
26212;DHT22;13951;49.516;6.094;2022-08-07T19:57:42;22.70;58.10
26212;DHT22;13951;49.516;6.094;2022-08-07T20:00:38;22.60;58.10
26212;DHT22;13951;49.516;6.094;2022-08-07T20:03:26;22.60;58.40
26212;DHT22;13951;49.516;6.094;2022-08-07T20:06:08;22.60;58.60
26212;DHT22;13951;49.516;6.094;2022-08-07T20:09:02;22.50;58.70
26212;DHT22;13951;49.516;6.094;2022-08-07T20:11:58;22.40;58.30
26212;DHT22;13951;49.516;6.094;2022-08-07T20:14:52;22.40;59.00
26212;DHT22;13951;49.516;6.094;2022-08-07T20:17:30;22.40;59.30
26212;DHT22;13951;49.516;6.094;2022-08-07T20:20:10;22.30;58.90
26212;DHT22;13951;49.516;6.094;2022-08-07T20:22:46;22.30;58.70
26212;DHT22;13951;49.516;6.094;2022-08-07T20:25:22;22.20;59.00
26212;DHT22;13951;49.516;6.094;2022-08-07T20:27:56;22.10;59.40
26212;DHT22;13951;49.516;6.094;2022-08-07T20:30:43;22.10;58.90
26212;DHT22;13951;49.516;6.094;2022-08-07T20:33:19;22.10;59.60
26212;DHT22;13951;49.516;6.094;2022-08-07T20:36:09;22.00;59.50
26212;DHT22;13951;49.516;6.094;2022-08-07T20:38:50;22.00;59.00
26212;DHT22;13951;49.516;6.094;2022-08-07T20:41:39;21.90;59.10
26212;DHT22;13951;49.516;6.094;2022-08-07T20:44:15;21.90;59.90
26212;DHT22;13951;49.516;6.094;2022-08-07T20:46:53;21.90;60.20
26212;DHT22;13951;49.516;6.094;2022-08-07T20:49:39;21.80;60.40
26212;DHT22;13951;49.516;6.094;2022-08-07T20:52:34;21.80;60.50
26212;DHT22;13951;49.516;6.094;2022-08-07T20:55:24;21.80;59.70
26212;DHT22;13951;49.516;6.094;2022-08-07T20:57:59;21.70;60.20
26212;DHT22;13951;49.516;6.094;2022-08-07T21:00:43;21.60;59.70
26212;DHT22;13951;49.516;6.094;2022-08-07T21:03:18;21.60;59.60
26212;DHT22;13951;49.516;6.094;2022-08-07T21:06:02;21.60;60.80
26212;DHT22;13951;49.516;6.094;2022-08-07T21:09:06;21.50;60.70
26212;DHT22;13951;49.516;6.094;2022-08-07T21:11:47;21.40;60.00
26212;DHT22;13951;49.516;6.094;2022-08-07T21:14:30;21.40;59.90
26212;DHT22;13951;49.516;6.094;2022-08-07T21:17:10;21.40;60.00
26212;DHT22;13951;49.516;6.094;2022-08-07T21:20:09;21.40;60.40
26212;DHT22;13951;49.516;6.094;2022-08-07T21:23:06;21.30;63.30
26212;DHT22;13951;49.516;6.094;2022-08-07T21:26:47;21.30;62.20
26212;DHT22;13951;49.516;6.094;2022-08-07T21:29:08;21.30;61.10
26212;DHT22;13951;49.516;6.094;2022-08-07T21:35:25;21.20;62.40
26212;DHT22;13951;49.516;6.094;2022-08-07T21:38:27;21.20;61.70
26212;DHT22;13951;49.516;6.094;2022-08-07T21:41:06;21.10;61.40
26212;DHT22;13951;49.516;6.094;2022-08-07T21:43:51;21.10;63.00